Date,TemperatureHighF,TemperatureAvgF,TemperatureLowF,DewpointHighF,DewpointAvgF,DewpointLowF,HumidityHigh,HumidityAvg,HumidityLow,PressureMaxIn,PressureMinIn,WindSpeedMaxMPH,WindSpeedAvgMPH,GustSpeedMaxMPH,PrecipitationSumIn
2013-2-8,52.6,52.6,52.6,51.2,51.2,51.2,95,95,95,30.09,30.09,3,3,0,0.00
2013-2-9,52.6,52.6,52.6,51.2,51.2,51.2,95,95,95,30.09,30.09,3,3,0,0.00
2013-2-10,52.6,52.6,52.6,51.2,51.2,51.2,95,95,95,30.09,30.09,3,3,0,0.00
2013-2-11,52.6,52.3,51.4,51.2,50.7,49.4,95,95,93,30.13,30.08,8,3,13,1.05
2013-2-12,56.5,53.0,49.0,55.7,51.8,47.9,97,96,93,30.09,29.76,11,3,15,1.28
2013-2-13,55.4,49.0,38.4,49.7,42.7,36.8,97,80,59,30.10,29.90,6,2,12,0.00
2013-2-14,61.2,45.6,32.4,43.0,38.3,31.3,97,78,47,30.18,30.08,4,1,9,0.00
2013-2-15,64.8,49.6,35.8,45.4,40.3,34.5,96,73,41,30.27,30.12,4,1,10,0.00
2013-2-16,53.1,44.2,35.3,42.2,28.5,22.5,91,56,34,30.40,30.25,8,2,20,0.00
2013-2-17,66.3,49.8,32.7,47.2,39.0,29.5,93,68,45,30.33,30.14,8,4,18,0.00
2013-2-18,68.0,58.1,48.0,62.2,53.3,42.6,96,84,67,30.17,29.90,12,5,22,1.18
2013-2-19,62.3,53.0,43.8,56.1,40.1,32.2,90,64,34,30.30,29.99,7,2,22,0.00
2013-2-20,57.5,50.9,43.1,38.6,34.6,28.9,74,54,40,30.28,29.99,12,6,16,0.00
2013-2-21,71.1,59.4,50.5,69.0,53.2,34.8,96,81,49,29.99,29.65,12,1,22,0.64
2013-2-22,64.3,55.9,51.3,54.9,49.9,47.0,92,81,58,30.02,29.89,7,2,11,0.09
2013-2-23,64.8,52.9,45.4,49.5,45.0,40.7,89,76,53,30.02,29.91,5,2,8,0.00
2013-2-24,67.8,52.9,41.0,56.7,43.7,38.1,93,73,43,30.02,29.73,9,3,13,0.00
2013-2-25,68.3,61.0,49.5,64.9,56.1,34.4,97,85,49,29.73,29.40,9,4,14,0.26
2013-2-26,59.9,49.9,43.1,41.0,37.3,33.8,87,63,46,29.95,29.59,7,4,15,0.00
2013-2-27,69.0,51.9,36.9,45.8,39.2,32.8,95,66,37,30.11,29.94,6,2,15,0.00
2013-2-28,56.0,46.3,38.4,34.6,31.9,27.9,82,59,38,30.23,30.09,5,2,12,0.00